Time;durP1;ratioP1;P1;durP2;ratioP2;P2;SDS_P1;SDS_P2;PMS_P1;PMS_P2;Temp;Humidity;BMP_temperature;BMP_pressure;BME280_temperature;BME280_humidity;BME280_pressure;Samples;Min_cycle;Max_cycle;Signal;HPM_P1;HPM_P2
2023/04/14 00:01:36;;;;;;;4.32;2.67;;;;;;;11.09;65.45;93724.50;4988737;28;20292;-72
2023/04/14 00:04:05;;;;;;;9.55;4.25;;;;;;;10.89;64.27;93712.06;4976581;28;20284;-71
2023/04/14 00:06:32;;;;;;;9.60;3.33;;;;;;;10.96;64.40;93728.47;4977231;28;20246;-71
2023/04/14 00:08:59;;;;;;;6.78;3.95;;;;;;;10.89;63.88;93712.84;4960784;28;20206;-72
2023/04/14 00:11:26;;;;;;;4.82;3.45;;;;;;;11.10;62.72;93714.47;4988208;28;20206;-71
2023/04/14 00:13:54;;;;;;;5.40;2.67;;;;;;;10.97;62.68;93684.75;4978578;28;20289;-71
2023/04/14 00:16:21;;;;;;;5.50;3.03;;;;;;;10.99;63.33;93711.50;4988553;28;20221;-71
2023/04/14 00:18:48;;;;;;;5.28;2.78;;;;;;;10.82;63.44;93679.38;4988830;28;20229;-71
2023/04/14 00:21:16;;;;;;;6.38;2.75;;;;;;;10.94;64.08;93696.31;4988728;28;20201;-72
2023/04/14 00:23:43;;;;;;;3.88;2.70;;;;;;;10.93;64.70;93708.28;4978760;28;20202;-72
2023/04/14 00:26:10;;;;;;;6.90;2.60;;;;;;;10.77;63.70;93693.97;4986161;28;20700;-71
2023/04/14 00:28:37;;;;;;;5.53;2.92;;;;;;;10.82;64.95;93692.91;4992494;28;20712;-71
2023/04/14 00:31:04;;;;;;;6.03;2.40;;;;;;;10.78;64.82;93700.97;4976553;28;20210;-71
2023/04/14 00:33:30;;;;;;;7.40;2.50;;;;;;;10.64;64.79;93696.00;4987499;28;20198;-72
2023/04/14 00:35:57;;;;;;;9.82;2.58;;;;;;;10.63;65.02;93705.25;4992092;28;20217;-72
2023/04/14 00:38:26;;;;;;;6.70;3.05;;;;;;;10.52;65.17;93698.78;4991519;28;20212;-72
2023/04/14 00:40:52;;;;;;;7.18;3.65;;;;;;;10.61;65.02;93685.88;4992074;28;20226;-72
2023/04/14 00:43:20;;;;;;;8.10;2.97;;;;;;;10.70;65.35;93680.25;4981257;28;20198;-72
2023/04/14 00:45:48;;;;;;;5.05;2.45;;;;;;;10.84;65.04;93696.06;4986926;28;20992;-72
2023/04/14 00:48:16;;;;;;;3.95;2.70;;;;;;;10.69;64.42;93670.56;4991819;28;20214;-72
2023/04/14 00:50:44;;;;;;;4.38;2.50;;;;;;;11.00;64.89;93696.81;4991905;28;20197;-71
2023/04/14 00:53:12;;;;;;;4.35;2.33;;;;;;;10.97;65.03;93686.69;4983057;28;20202;-72
2023/04/14 00:55:41;;;;;;;5.63;2.72;;;;;;;11.17;63.88;93691.03;4987688;28;20217;-73
2023/04/14 00:58:09;;;;;;;5.57;2.63;;;;;;;11.23;63.17;93696.94;4982651;28;20852;-71
2023/04/14 01:00:37;;;;;;;4.68;2.97;;;;;;;11.11;64.33;93689.72;4984891;28;20258;-71
2023/04/14 01:03:04;;;;;;;4.22;2.35;;;;;;;11.12;64.67;93682.38;4974383;28;20708;-71
2023/04/14 01:05:30;;;;;;;4.82;2.50;;;;;;;11.15;65.49;93682.47;4988389;28;20209;-72
2023/04/14 01:07:58;;;;;;;3.80;2.45;;;;;;;11.07;65.69;93686.13;4991582;28;20241;-72
2023/04/14 01:10:34;;;;;;;6.00;2.95;;;;;;;10.83;65.97;93651.94;4991213;28;20292;-71
2023/04/14 01:13:15;;;;;;;4.20;2.60;;;;;;;10.97;65.18;93678.56;4984210;28;20197;-72
2023/04/14 01:15:49;;;;;;;6.68;2.50;;;;;;;10.89;66.16;93685.75;4967838;28;20569;-72
2023/04/14 01:18:23;;;;;;;6.25;3.00;;;;;;;10.86;67.03;93685.66;4989916;28;20233;-72
2023/04/14 01:20:56;;;;;;;3.97;2.13;;;;;;;10.56;67.85;93693.47;4981052;28;20208;-71
2023/04/14 01:23:26;;;;;;;5.28;2.58;;;;;;;10.80;66.34;93689.75;4973884;28;20685;-72
2023/04/14 01:26:17;;;;;;;6.47;3.00;;;;;;;10.82;65.48;93684.78;4972104;28;20206;-72
2023/04/14 01:29:17;;;;;;;6.32;2.45;;;;;;;10.90;65.98;93686.53;4968329;28;20202;-71
2023/04/14 01:31:48;;;;;;;3.28;2.10;;;;;;;11.09;65.25;93683.84;4984393;28;20225;-72
2023/04/14 01:34:22;;;;;;;8.70;2.50;;;;;;;10.92;65.36;93662.59;4984060;28;20206;-72
2023/04/14 01:36:56;;;;;;;14.02;5.50;;;;;;;10.82;66.24;93669.31;4967442;28;20197;-72
2023/04/14 01:39:30;;;;;;;4.10;2.03;;;;;;;10.68;64.79;93642.69;4990811;28;20287;-73
2023/04/14 01:41:58;;;;;;;4.07;2.65;;;;;;;10.92;66.06;93674.22;4990540;28;20281;-72
2023/04/14 01:44:26;;;;;;;5.78;3.05;;;;;;;10.87;65.39;93643.88;4968840;28;20724;-73
2023/04/14 01:47:01;;;;;;;4.25;2.60;;;;;;;10.95;64.94;93653.72;4962198;28;20265;-71
2023/04/14 01:49:30;;;;;;;4.50;2.70;;;;;;;11.06;64.84;93671.03;4988181;28;20205;-71
2023/04/14 01:51:57;;;;;;;3.40;2.33;;;;;;;11.13;65.08;93687.44;4990463;28;20213;-71
2023/04/14 01:54:24;;;;;;;5.13;2.67;;;;;;;11.22;64.21;93681.81;4977256;28;20267;-71
2023/04/14 01:56:53;;;;;;;4.88;2.83;;;;;;;11.09;64.42;93672.22;4990856;28;20209;-72
2023/04/14 01:59:22;;;;;;;4.53;2.45;;;;;;;10.99;64.70;93651.91;4977471;28;20253;-72
2023/04/14 02:01:50;;;;;;;4.38;2.50;;;;;;;11.11;64.74;93659.91;4989934;28;20260;-73
2023/04/14 02:04:22;;;;;;;5.22;2.47;;;;;;;10.93;64.70;93661.47;4978549;28;20686;-71
2023/04/14 02:06:51;;;;;;;3.75;2.53;;;;;;;10.91;66.14;93669.16;4990381;28;20236;-72
2023/04/14 02:09:20;;;;;;;7.20;2.80;;;;;;;10.78;64.86;93667.69;4990159;28;20944;-71
2023/04/14 02:11:49;;;;;;;4.15;2.63;;;;;;;10.86;64.87;93680.25;4989956;28;20220;-72
2023/04/14 02:14:18;;;;;;;5.82;2.60;;;;;;;10.77;65.32;93674.25;4979746;28;20202;-71
2023/04/14 02:16:48;;;;;;;4.38;2.80;;;;;;;10.76;65.41;93667.25;4990217;28;20253;-72
2023/04/14 02:19:19;;;;;;;6.38;2.70;;;;;;;10.86;65.53;93685.66;4989976;28;20679;-72
2023/04/14 02:21:49;;;;;;;4.78;2.53;;;;;;;11.01;64.96;93685.63;4989672;28;20681;-72
2023/04/14 02:24:16;;;;;;;3.05;2.03;;;;;;;10.82;66.05;93679.38;4971885;28;20222;-72
2023/04/14 02:26:56;;;;;;;5.28;2.95;;;;;;;10.80;66.24;93673.50;4983384;28;20593;-72
2023/04/14 02:29:25;;;;;;;6.57;2.78;;;;;;;10.56;66.53;93650.91;4980883;28;20198;-72
2023/04/14 02:31:59;;;;;;;4.30;2.33;;;;;;;10.84;67.28;93693.34;4982640;28;20201;-71
2023/04/14 02:34:32;;;;;;;5.75;2.30;;;;;;;11.02;65.91;93676.38;4985704;28;20185;-72
2023/04/14 02:37:02;;;;;;;4.20;2.60;;;;;;;11.08;65.75;93676.88;4990000;28;20198;-72
2023/04/14 02:39:31;;;;;;;4.50;2.63;;;;;;;11.14;65.04;93678.16;4989760;28;20693;-72
2023/04/14 02:42:04;;;;;;;7.10;2.80;;;;;;;11.12;65.51;93687.78;4989599;28;20284;-71
2023/04/14 02:44:35;;;;;;;4.28;2.47;;;;;;;10.98;65.44;93694.47;4974063;28;20210;-73
2023/04/14 02:47:06;;;;;;;3.35;2.20;;;;;;;10.89;66.32;93674.13;4989791;28;20808;-72
2023/04/14 02:49:37;;;;;;;8.32;2.97;;;;;;;10.69;65.66;93675.97;4989519;28;20205;-71
2023/04/14 02:52:06;;;;;;;3.10;2.30;;;;;;;10.77;66.63;93672.31;4988829;28;20205;-72
2023/04/14 02:54:35;;;;;;;3.42;2.40;;;;;;;10.66;66.08;93634.13;4976226;28;20680;-72
2023/04/14 02:57:03;;;;;;;8.70;2.60;;;;;;;11.05;65.41;93672.19;4989109;28;20197;-71
2023/04/14 02:59:31;;;;;;;5.90;2.92;;;;;;;10.79;65.84;93663.84;4970775;28;20230;-71
2023/04/14 03:02:01;;;;;;;5.03;2.63;;;;;;;10.81;66.86;93673.16;4968685;28;20259;-72
2023/04/14 03:04:31;;;;;;;4.57;2.60;;;;;;;10.92;65.83;93671.50;4977192;28;20229;-71
2023/04/14 03:07:01;;;;;;;5.47;2.50;;;;;;;10.39;66.07;93624.22;4988518;28;20241;-71
2023/04/14 03:09:30;;;;;;;6.07;2.80;;;;;;;10.66;66.80;93650.38;4989036;28;20217;-71
2023/04/14 03:11:58;;;;;;;4.40;2.58;;;;;;;10.67;66.78;93641.13;4975963;28;20213;-72
2023/04/14 03:14:26;;;;;;;4.70;3.00;;;;;;;10.67;67.99;93646.53;4979272;28;20201;-72
2023/04/14 03:16:57;;;;;;;5.65;2.30;;;;;;;10.78;67.35;93654.94;4976032;28;20232;-72
2023/04/14 03:19:25;;;;;;;5.10;2.78;;;;;;;10.77;67.07;93652.56;4979214;28;20764;-73
2023/04/14 03:21:54;;;;;;;5.85;2.80;;;;;;;10.69;67.20;93641.56;4969863;28;20749;-71
2023/04/14 03:24:26;;;;;;;4.13;2.30;;;;;;;10.82;67.07;93668.53;4969209;28;20800;-71
2023/04/14 03:26:57;;;;;;;6.50;3.38;;;;;;;10.62;67.06;93641.41;4988806;28;20224;-72
2023/04/14 03:29:27;;;;;;;4.25;2.50;;;;;;;10.71;66.74;93640.41;4986142;28;20293;-72
2023/04/14 03:31:56;;;;;;;4.32;2.80;;;;;;;10.83;66.62;93632.19;4988868;28;20202;-71
2023/04/14 03:34:28;;;;;;;3.47;2.50;;;;;;;10.69;66.20;93608.28;4984141;28;20205;-71
2023/04/14 03:36:56;;;;;;;4.57;2.30;;;;;;;10.79;66.97;93626.69;4989243;28;20213;-71
2023/04/14 03:39:26;;;;;;;5.53;2.92;;;;;;;10.82;66.38;93617.06;4971285;28;20257;-71
2023/04/14 03:41:56;;;;;;;5.97;3.15;;;;;;;10.67;66.78;93592.38;4969030;28;20194;-72
2023/04/14 03:44:26;;;;;;;9.43;5.90;;;;;;;10.61;66.80;93585.69;4974608;28;20194;-71
2023/04/14 03:46:54;;;;;;;3.00;2.05;;;;;;;10.54;67.62;93593.63;4989149;28;20789;-70
2023/04/14 03:49:24;;;;;;;2.47;1.40;;;;;;;10.98;65.38;93571.75;4985402;28;20217;-72
2023/04/14 03:51:53;;;;;;;3.75;2.30;;;;;;;11.35;64.26;93591.84;4979847;28;20206;-72
2023/04/14 03:54:23;;;;;;;3.30;2.08;;;;;;;11.54;63.33;93580.22;4974329;28;20212;-71
2023/04/14 03:56:55;;;;;;;2.50;0.95;;;;;;;11.69;62.46;93571.22;4990633;28;20213;-71
2023/04/14 03:59:25;;;;;;;1.92;1.60;;;;;;;11.75;62.27;93566.28;4986303;28;20253;-72
2023/04/14 04:01:53;;;;;;;3.58;1.25;;;;;;;11.86;61.82;93567.28;4959249;28;20310;-71
2023/04/14 04:04:21;;;;;;;2.08;1.65;;;;;;;11.93;61.61;93574.75;4971852;28;20210;-71
2023/04/14 04:06:48;;;;;;;1.52;1.25;;;;;;;12.14;60.63;93568.91;4985865;28;20237;-72
2023/04/14 04:09:16;;;;;;;3.05;2.50;;;;;;;12.07;61.02;93580.41;4991804;28;20705;-71
2023/04/14 04:11:47;;;;;;;3.58;2.17;;;;;;;11.96;62.09;93595.75;4992461;28;20202;-72
2023/04/14 04:14:18;;;;;;;4.75;2.97;;;;;;;11.29;64.70;93595.22;4983325;28;20197;-72
2023/04/14 04:16:48;;;;;;;7.32;2.80;;;;;;;10.97;65.58;93589.13;4992438;28;20229;-72
2023/04/14 04:19:18;;;;;;;5.00;2.08;;;;;;;10.71;66.90;93565.38;4992219;28;20208;-72
2023/04/14 04:21:46;;;;;;;6.35;3.05;;;;;;;10.52;67.69;93568.06;4992906;28;20225;-72
2023/04/14 04:24:15;;;;;;;5.50;3.15;;;;;;;10.50;68.09;93581.94;4974464;28;20207;-72
2023/04/14 04:26:42;;;;;;;4.47;3.03;;;;;;;10.50;67.70;93573.81;4964671;28;20202;-72
2023/04/14 04:29:10;;;;;;;5.35;2.15;;;;;;;10.56;66.64;93556.16;4991533;28;20201;-73
2023/04/14 04:31:39;;;;;;;4.63;3.03;;;;;;;10.91;66.05;93579.75;4992038;28;20206;-71
2023/04/14 04:34:07;;;;;;;3.83;2.33;;;;;;;11.11;65.40;93586.72;4975329;28;20294;-72
2023/04/14 04:36:35;;;;;;;6.47;1.90;;;;;;;11.32;63.91;93589.88;4972317;28;20206;-72
2023/04/14 04:39:02;;;;;;;4.75;2.20;;;;;;;11.25;63.89;93570.75;4984830;28;20205;-73
2023/04/14 04:41:30;;;;;;;5.10;2.70;;;;;;;11.52;64.43;93625.09;4978431;28;20233;-71
2023/04/14 04:43:58;;;;;;;4.82;2.08;;;;;;;11.33;64.93;93618.56;4977090;28;20202;-72
2023/04/14 04:46:44;;;;;;;4.72;2.35;;;;;;;11.36;64.66;93623.25;4965593;28;20215;-71
2023/04/14 04:49:11;;;;;;;2.75;1.85;;;;;;;11.50;64.10;93625.47;4992031;28;20198;-72
2023/04/14 04:51:38;;;;;;;6.85;2.30;;;;;;;11.43;64.15;93614.50;4991577;28;20209;-72
2023/04/14 04:54:05;;;;;;;8.45;3.05;;;;;;;11.44;63.68;93604.44;4977322;28;20218;-73
2023/04/14 04:56:33;;;;;;;4.30;2.60;;;;;;;11.39;63.91;93581.09;4990731;28;20213;-71
2023/04/14 04:59:00;;;;;;;11.93;4.47;;;;;;;11.49;63.29;93585.13;4991694;28;20209;-72
2023/04/14 05:01:27;;;;;;;3.10;2.08;;;;;;;11.48;63.15;93597.16;4982186;28;20238;-72
2023/04/14 05:03:55;;;;;;;5.72;2.35;;;;;;;11.70;62.33;93599.13;4976472;28;20202;-72
2023/04/14 05:06:22;;;;;;;6.53;2.92;;;;;;;11.83;62.39;93603.28;4980817;28;20242;-72
2023/04/14 05:08:51;;;;;;;8.82;2.50;;;;;;;12.09;62.11;93607.97;4988477;28;20213;-71
2023/04/14 05:11:21;;;;;;;3.83;2.67;;;;;;;11.87;62.33;93576.19;4991671;28;20292;-72
2023/04/14 05:13:48;;;;;;;4.22;2.67;;;;;;;12.04;63.12;93603.63;4981964;28;20246;-71
2023/04/14 05:16:15;;;;;;;4.43;2.42;;;;;;;12.18;62.89;93608.53;4979830;28;20229;-74
2023/04/14 05:18:44;;;;;;;10.23;3.83;;;;;;;12.23;62.38;93602.00;4953894;28;20290;-72
2023/04/14 05:21:14;;;;;;;5.18;3.15;;;;;;;12.05;62.33;93583.50;4976193;28;20248;-71
2023/04/14 05:23:42;;;;;;;8.35;3.38;;;;;;;12.32;61.99;93581.59;4977713;28;20962;-73
2023/04/14 05:26:11;;;;;;;6.60;4.18;;;;;;;12.47;62.46;93577.19;4984556;28;20791;-71
2023/04/14 05:28:38;;;;;;;5.55;3.20;;;;;;;12.25;61.59;93569.84;4965619;28;20759;-72
2023/04/14 05:31:05;;;;;;;11.95;2.65;;;;;;;12.18;61.85;93553.44;4991127;28;20228;-72
2023/04/14 05:33:32;;;;;;;7.90;3.33;;;;;;;12.26;61.84;93566.00;4986202;28;20560;-72
2023/04/14 05:35:59;;;;;;;9.50;2.92;;;;;;;12.25;62.01;93537.28;4991782;28;20216;-72
2023/04/14 05:38:27;;;;;;;8.23;3.17;;;;;;;12.43;61.51;93541.84;4991283;28;20209;-72
2023/04/14 05:40:54;;;;;;;4.82;2.78;;;;;;;12.24;62.18;93541.91;4990825;28;20577;-72
2023/04/14 05:43:21;;;;;;;3.25;2.38;;;;;;;12.21;62.25;93526.34;4979579;28;20293;-73
2023/04/14 05:45:48;;;;;;;3.45;1.88;;;;;;;12.37;61.72;93537.06;4985658;28;20521;-74
2023/04/14 05:48:15;;;;;;;6.93;3.53;;;;;;;12.55;60.79;93542.78;4982526;28;20269;-71
2023/04/14 05:50:42;;;;;;;2.65;1.50;;;;;;;12.63;59.69;93509.91;4959909;28;20207;-71
2023/04/14 05:53:10;;;;;;;2.90;1.73;;;;;;;12.94;58.58;93507.97;4982203;28;20354;-72
2023/04/14 05:55:39;;;;;;;7.68;3.08;;;;;;;13.29;57.80;93507.63;4986159;28;20206;-72
2023/04/14 05:58:06;;;;;;;4.40;2.70;;;;;;;13.36;57.18;93513.94;4981572;28;20671;-71
2023/04/14 06:00:33;;;;;;;2.70;1.88;;;;;;;13.35;57.68;93520.53;4983786;28;20225;-71
2023/04/14 06:03:00;;;;;;;7.03;2.08;;;;;;;13.55;56.84;93526.56;4972250;28;20229;-72
2023/04/14 06:05:27;;;;;;;1.58;1.45;;;;;;;13.23;57.18;93500.97;4986438;28;20276;-71
2023/04/14 06:07:54;;;;;;;3.55;2.03;;;;;;;13.25;57.80;93496.72;4983677;28;21027;-70
2023/04/14 06:10:21;;;;;;;4.35;2.45;;;;;;;13.37;57.38;93507.34;4972823;28;20293;-72
2023/04/14 06:12:49;;;;;;;4.78;3.00;;;;;;;13.63;56.68;93490.13;4970994;28;20199;-71
2023/04/14 06:15:16;;;;;;;5.55;2.65;;;;;;;13.84;55.95;93506.63;4960429;28;20225;-71
2023/04/14 06:17:46;;;;;;;4.97;2.50;;;;;;;13.57;56.49;93501.69;4989471;28;20737;-72
2023/04/14 06:20:13;;;;;;;4.03;2.72;;;;;;;13.40;57.01;93492.97;4975550;28;20780;-70
2023/04/14 06:22:41;;;;;;;5.97;2.78;;;;;;;13.74;56.58;93480.09;4985281;28;20273;-71
2023/04/14 06:25:09;;;;;;;5.20;2.58;;;;;;;13.59;57.08;93493.94;4975518;28;20280;-72
2023/04/14 06:27:36;;;;;;;2.78;1.90;;;;;;;13.48;57.10;93467.44;4989782;28;20210;-71
2023/04/14 06:30:06;;;;;;;4.00;2.10;;;;;;;13.38;56.72;93457.22;4984103;28;20264;-72
2023/04/14 06:32:33;;;;;;;6.13;2.60;;;;;;;13.40;56.88;93459.56;4978911;28;20210;-72
2023/04/14 06:35:00;;;;;;;4.03;2.10;;;;;;;13.55;56.30;93425.09;4976461;28;20264;-73
2023/04/14 06:37:27;;;;;;;4.93;3.45;;;;;;;13.85;55.76;93433.91;4989539;28;20245;-72
2023/04/14 06:39:53;;;;;;;5.57;2.55;;;;;;;14.09;55.12;93444.22;4976506;28;20600;-71
2023/04/14 06:42:20;;;;;;;5.82;3.30;;;;;;;14.30;54.63;93418.28;4987012;28;20244;-73
2023/04/14 06:44:47;;;;;;;3.53;2.53;;;;;;;14.49;53.75;93416.06;4988676;28;20206;-71
2023/04/14 06:47:23;;;;;;;4.35;1.75;;;;;;;14.76;52.84;93408.41;4989491;28;20197;-72
2023/04/14 06:49:53;;;;;;;5.22;3.13;;;;;;;14.74;53.19;93415.44;4965153;28;20197;-73
2023/04/14 06:52:20;;;;;;;10.32;3.35;;;;;;;14.33;54.29;93401.19;4986887;28;20220;-74
2023/04/14 06:54:47;;;;;;;5.85;3.15;;;;;;;14.41;54.96;93394.63;4978015;28;20200;-73
2023/04/14 06:57:13;;;;;;;6.80;3.30;;;;;;;14.93;53.76;93406.91;4987707;28;20213;-70
2023/04/14 06:59:40;;;;;;;5.15;2.90;;;;;;;15.05;53.21;93378.50;4978361;28;20212;-72
2023/04/14 07:02:07;;;;;;;5.55;3.42;;;;;;;15.62;51.93;93376.66;4975301;28;20244;-73
2023/04/14 07:04:37;;;;;;;5.68;3.03;;;;;;;15.99;51.48;93368.06;4969402;28;20277;-72
2023/04/14 07:07:04;;;;;;;5.03;3.00;;;;;;;16.22;50.56;93373.91;4982715;28;20244;-73
2023/04/14 07:09:30;;;;;;;5.50;3.20;;;;;;;17.44;48.20;93369.47;4969460;28;20249;-72
2023/04/14 07:11:57;;;;;;;6.22;3.05;;;;;;;18.60;45.86;93363.38;4968899;28;20666;-73
2023/04/14 07:14:24;;;;;;;8.10;3.10;;;;;;;18.69;45.09;93366.44;4970263;28;20661;-73
2023/04/14 07:16:51;;;;;;;5.38;3.00;;;;;;;18.65;44.45;93360.19;4973559;28;20694;-73
2023/04/14 07:19:18;;;;;;;6.57;2.55;;;;;;;18.57;45.09;93359.47;4968557;28;20202;-72
2023/04/14 07:21:47;;;;;;;4.38;2.47;;;;;;;18.74;44.28;93363.22;4969928;28;20654;-72
2023/04/14 07:24:14;;;;;;;5.22;2.42;;;;;;;18.39;44.15;93351.44;4968800;28;20203;-73
2023/04/14 07:26:41;;;;;;;5.78;2.45;;;;;;;18.15;44.20;93355.22;4974020;28;20201;-72
2023/04/14 07:29:08;;;;;;;9.68;3.05;;;;;;;18.60;43.74;93341.44;4970151;28;20198;-72
2023/04/14 07:31:36;;;;;;;10.52;2.67;;;;;;;19.46;42.97;93352.84;4973360;28;20194;-73
2023/04/14 07:34:04;;;;;;;3.45;2.13;;;;;;;18.63;43.01;93354.34;4985103;28;20216;-71
2023/04/14 07:36:31;;;;;;;5.93;2.75;;;;;;;18.88;43.01;93341.09;4978925;28;20300;-71
2023/04/14 07:39:00;;;;;;;8.25;2.60;;;;;;;19.93;41.42;93339.22;4974939;28;20202;-72
2023/04/14 07:41:27;;;;;;;5.97;2.55;;;;;;;19.91;40.37;93336.88;4974817;28;20776;-72
2023/04/14 07:43:56;;;;;;;4.63;2.60;;;;;;;18.52;43.44;93345.44;4974599;28;20571;-72
2023/04/14 07:46:23;;;;;;;3.45;2.40;;;;;;;18.10;44.37;93331.00;4978656;28;20201;-72
2023/04/14 07:48:50;;;;;;;8.57;2.47;;;;;;;18.41;43.63;93340.84;4967513;28;20203;-74
2023/04/14 07:51:17;;;;;;;5.35;2.40;;;;;;;18.76;42.48;93336.16;4966384;28;20210;-73
2023/04/14 07:53:43;;;;;;;7.43;2.20;;;;;;;19.01;42.08;93325.63;4971766;28;20210;-74
2023/04/14 07:56:12;;;;;;;5.57;2.47;;;;;;;18.98;41.58;93331.97;4977596;28;20567;-73
2023/04/14 07:58:41;;;;;;;6.82;2.60;;;;;;;19.70;40.30;93321.50;4970314;28;20206;-74
2023/04/14 08:01:08;;;;;;;7.60;2.38;;;;;;;19.75;39.70;93320.25;4960320;28;20293;-72
2023/04/14 08:03:36;;;;;;;7.50;2.60;;;;;;;18.82;41.47;93334.53;4970423;28;20304;-73
2023/04/14 08:06:05;;;;;;;27.15;17.70;;;;;;;18.76;40.88;93320.47;4982738;28;20240;-71
2023/04/14 08:08:32;;;;;;;3.33;2.13;;;;;;;18.10;43.35;93303.59;4976085;28;20780;-73
2023/04/14 08:11:00;;;;;;;5.10;3.00;;;;;;;18.00;43.16;93340.09;4977066;28;20199;-72
2023/04/14 08:13:28;;;;;;;11.85;4.22;;;;;;;18.26;42.98;93323.00;4978906;28;20190;-74
2023/04/14 08:15:58;;;;;;;5.68;2.80;;;;;;;18.38;43.03;93338.91;4974609;28;20226;-74
2023/04/14 08:18:24;;;;;;;10.50;2.78;;;;;;;18.54;43.08;93337.56;4977899;28;20568;-75
2023/04/14 08:20:51;;;;;;;6.05;3.60;;;;;;;18.57;42.63;93342.25;4974527;28;20214;-74
2023/04/14 08:23:19;;;;;;;12.55;5.97;;;;;;;19.31;41.74;93337.78;4973860;28;20316;-74
2023/04/14 08:25:46;;;;;;;7.47;2.95;;;;;;;20.03;40.19;93335.50;4975058;28;20213;-74
2023/04/14 08:28:13;;;;;;;8.95;2.85;;;;;;;19.36;40.66;93331.81;4974642;28;20217;-75
2023/04/14 08:30:41;;;;;;;8.60;2.45;;;;;;;19.31;41.45;93335.03;4971210;28;20233;-73
2023/04/14 08:33:08;;;;;;;243.20;16.60;;;;;;;20.75;33.57;93286.22;4973530;28;20214;-74
2023/04/14 08:35:35;;;;;;;12.75;2.58;;;;;;;21.80;31.25;93307.09;4973535;28;20210;-76
2023/04/14 08:38:02;;;;;;;22.08;3.10;;;;;;;22.26;30.39;93291.38;4973663;28;20208;-73
2023/04/14 08:40:39;;;;;;;19.25;2.75;;;;;;;22.84;29.33;93307.94;4973319;28;20216;-74
2023/04/14 08:43:06;;;;;;;17.25;2.80;;;;;;;23.26;28.84;93301.16;4973163;28;20214;-74
2023/04/14 08:45:33;;;;;;;15.20;2.70;;;;;;;23.61;28.68;93301.34;4970195;28;20640;-74
2023/04/14 08:48:03;;;;;;;23.20;2.80;;;;;;;23.89;28.09;93305.97;4969438;28;20404;-75
2023/04/14 08:50:33;;;;;;;21.15;2.95;;;;;;;24.10;28.10;93334.91;4971175;28;20203;-75
2023/04/14 08:53:02;;;;;;;15.40;2.50;;;;;;;24.16;27.46;93316.53;4967131;28;20281;-75
2023/04/14 08:55:30;;;;;;;12.45;2.30;;;;;;;24.50;27.70;93321.31;4969078;28;20199;-76
2023/04/14 08:58:00;;;;;;;19.58;2.65;;;;;;;23.94;27.62;93327.50;4979755;28;20255;-73
2023/04/14 09:00:27;;;;;;;10.38;2.50;;;;;;;24.05;27.95;93330.69;4971265;28;20663;-73
2023/04/14 09:02:55;;;;;;;12.50;2.67;;;;;;;23.97;27.93;93347.97;4968231;28;20285;-73
2023/04/14 09:05:25;;;;;;;23.40;2.72;;;;;;;23.67;28.16;93338.25;4972332;28;20281;-74
2023/04/14 09:07:53;;;;;;;16.00;2.63;;;;;;;23.74;28.37;93347.13;4967150;28;20230;-74
2023/04/14 09:10:21;;;;;;;16.88;2.90;;;;;;;23.50;27.84;93317.47;4968878;28;20256;-74
2023/04/14 09:12:48;;;;;;;11.52;2.47;;;;;;;23.90;27.97;93349.00;4968886;28;20613;-74
2023/04/14 09:15:15;;;;;;;12.93;2.20;;;;;;;23.99;27.78;93335.25;4969632;28;20231;-74
2023/04/14 09:17:42;;;;;;;16.15;3.15;;;;;;;24.24;28.07;93328.16;4971708;28;20287;-73
2023/04/14 09:20:11;;;;;;;47.55;5.03;;;;;;;24.50;27.28;93339.94;4967447;28;20194;-74
2023/04/14 09:22:40;;;;;;;46.13;4.93;;;;;;;23.82;27.62;93320.00;4970455;28;20226;-77
2023/04/14 09:25:09;;;;;;;22.48;3.00;;;;;;;23.32;28.76;93327.06;4967332;28;20199;-77
2023/04/14 09:27:36;;;;;;;20.67;3.28;;;;;;;23.43;28.91;93325.94;4966493;28;20525;-77
2023/04/14 09:30:03;;;;;;;326.48;27.58;;;;;;;23.20;28.73;93313.22;4969117;28;20206;-77
2023/04/14 09:32:31;;;;;;;14.35;2.92;;;;;;;23.13;28.74;93302.38;4970002;28;20210;-75
2023/04/14 09:34:58;;;;;;;13.32;2.55;;;;;;;23.16;29.25;93313.31;4970150;28;20317;-78
2023/04/14 09:37:29;;;;;;;23.75;2.67;;;;;;;22.45;29.29;93304.25;4965988;28;20234;-75
2023/04/14 09:39:59;;;;;;;14.48;2.20;;;;;;;22.28;30.05;93288.94;4973066;28;20206;-77
2023/04/14 09:42:38;;;;;;;18.67;2.95;;;;;;;22.01;30.50;93286.50;4970528;28;20732;-72
2023/04/14 09:45:07;;;;;;;19.73;2.13;;;;;;;22.24;30.93;93337.94;4971898;28;20204;-72
2023/04/14 09:47:34;;;;;;;16.65;2.47;;;;;;;22.11;31.18;93313.03;4972499;28;20206;-74
2023/04/14 09:50:03;;;;;;;20.83;2.65;;;;;;;22.24;30.91;93333.19;4975661;28;20204;-73
2023/04/14 09:52:38;;;;;;;16.77;2.63;;;;;;;21.89;31.87;93318.28;4965636;28;20217;-71
2023/04/14 09:55:09;;;;;;;15.70;2.90;;;;;;;21.85;32.04;93339.66;4970246;28;20293;-75
2023/04/14 09:57:37;;;;;;;23.63;2.72;;;;;;;21.85;31.50;93344.41;4969360;28;20209;-74
2023/04/14 10:00:18;;;;;;;12.55;2.70;;;;;;;22.03;31.97;93338.47;4965990;28;20207;-74
2023/04/14 10:02:49;;;;;;;11.35;2.40;;;;;;;21.78;31.97;93334.31;4964535;28;20321;-75
2023/04/14 10:05:16;;;;;;;15.90;3.13;;;;;;;21.85;32.63;93342.41;4969909;28;20214;-74
2023/04/14 10:07:48;;;;;;;17.08;2.90;;;;;;;21.63;32.87;93355.91;4967689;28;20229;-74
2023/04/14 10:10:16;;;;;;;13.32;2.45;;;;;;;21.88;32.44;93365.56;4959961;28;20661;-75
2023/04/14 10:12:44;;;;;;;16.52;2.50;;;;;;;21.64;33.01;93367.72;4964769;28;20426;-74
2023/04/14 10:15:11;;;;;;;19.05;2.70;;;;;;;21.61;33.46;93396.91;4965991;28;20225;-75
2023/04/14 10:17:41;;;;;;;8.88;2.40;;;;;;;22.01;33.05;93357.41;4968010;28;20237;-75
2023/04/14 10:20:09;;;;;;;11.20;3.13;;;;;;;21.91;33.26;93417.88;4967533;28;20653;-75
2023/04/14 10:22:38;;;;;;;12.07;2.92;;;;;;;21.72;33.87;93420.72;4968274;28;20668;-78
2023/04/14 10:25:08;;;;;;;12.40;3.30;;;;;;;20.95;36.02;93454.91;4965318;28;20566;-76
2023/04/14 10:27:37;;;;;;;13.68;2.70;;;;;;;21.26;36.62;93455.53;4968674;28;20210;-73
2023/04/14 10:30:07;;;;;;;9.13;2.35;;;;;;;21.04;36.94;93457.91;4961647;28;20224;-75
2023/04/14 10:32:36;;;;;;;16.55;2.75;;;;;;;20.93;37.14;93479.34;4965963;28;20206;-73
2023/04/14 10:35:05;;;;;;;12.35;2.63;;;;;;;20.78;39.00;93439.50;4967525;28;20203;-74
2023/04/14 10:37:33;;;;;;;8.13;2.30;;;;;;;20.02;40.09;93526.38;4964019;28;20206;-73
2023/04/14 10:40:04;;;;;;;33.17;4.03;;;;;;;19.87;41.19;93545.81;4969769;28;20214;-72
2023/04/14 10:42:53;;;;;;;7.22;2.28;;;;;;;19.91;43.65;93558.75;4970011;28;20230;-72
2023/04/14 10:45:20;;;;;;;4.38;2.22;;;;;;;19.65;46.52;93588.50;4968286;28;20206;-72
2023/04/14 10:47:47;;;;;;;7.95;2.25;;;;;;;19.61;51.33;93628.97;4978417;28;20206;-72
2023/04/14 10:50:16;;;;;;;5.38;2.08;;;;;;;18.03;57.12;93662.66;4981688;28;20260;-73
2023/04/14 10:52:50;;;;;;;3.35;1.70;;;;;;;16.97;58.12;93667.16;4969596;28;20657;-73
2023/04/14 10:55:21;;;;;;;2.40;1.40;;;;;;;15.69;60.76;93681.69;4972785;28;20210;-73
2023/04/14 10:57:48;;;;;;;4.85;1.75;;;;;;;15.17;61.24;93710.97;4986596;28;20205;-72
2023/04/14 11:00:25;;;;;;;3.40;1.25;;;;;;;14.86;60.91;93734.88;4978061;28;20257;-73
2023/04/14 11:02:57;;;;;;;4.05;0.80;;;;;;;14.86;60.97;93734.09;4972930;28;20226;-73
2023/04/14 11:05:25;;;;;;;0.85;0.60;;;;;;;14.76;60.88;93735.53;4977181;28;20670;-73
2023/04/14 11:07:57;;;;;;;2.00;0.45;;;;;;;14.46;59.80;93726.69;4959355;28;20411;-73
2023/04/14 11:10:47;;;;;;;1.70;0.75;;;;;;;14.59;58.80;93752.53;4969338;28;20230;-72
2023/04/14 11:13:14;;;;;;;0.60;0.60;;;;;;;14.49;58.60;93753.97;4967908;28;20206;-77
2023/04/14 11:15:45;;;;;;;0.85;0.50;;;;;;;13.61;59.54;93774.63;4988590;28;20595;-78
2023/04/14 11:18:14;;;;;;;0.35;0.35;;;;;;;13.48;60.44;93793.91;4965423;28;20215;-74
2023/04/14 11:20:41;;;;;;;2.85;0.50;;;;;;;13.04;60.25;93796.28;4982058;28;20206;-83
2023/04/14 11:23:09;;;;;;;0.30;0.30;;;;;;;12.96;60.28;93812.84;4978069;28;20288;-73
2023/04/14 11:25:36;;;;;;;0.40;0.40;;;;;;;12.95;59.48;93798.47;4988977;28;20213;-74
2023/04/14 11:28:04;;;;;;;0.55;0.40;;;;;;;13.18;59.61;93812.06;4979886;28;20206;-72
2023/04/14 11:30:32;;;;;;;0.20;0.20;;;;;;;12.98;58.68;93802.38;4983024;28;20202;-80
2023/04/14 11:33:01;;;;;;;0.93;0.50;;;;;;;13.03;59.22;93842.84;4971339;28;20206;-73
2023/04/14 11:35:30;;;;;;;0.65;0.40;;;;;;;12.94;59.09;93815.13;4972390;28;20662;-73
2023/04/14 11:37:58;;;;;;;0.22;0.22;;;;;;;12.76;58.78;93845.47;4971909;28;20200;-73
2023/04/14 11:40:26;;;;;;;0.30;0.30;;;;;;;12.71;59.12;93848.47;4965187;28;20206;-72